Rusty Hill — WDA6027 — position and weather

sailwx.info

Track history (hours):
 
Tides and Currents Weather Stations Pressure Air Temp Water Temp Dewpoint Dewpoint Depression Visibility Wind Speed Wind Dir Waves Ship Positions

Rusty Hill

Owner: Blessey Enterprises, Inc., HARAHAN, LA. More information available from US FCC via Universal Licensing System.

Last reported at 2018-Jul-22 03:00 UTC. Time now 2018-Jul-22 03:10 UTC.
Position N 29°47' W 095°05'.

Length 43 m; draft 2.6 m.

Type: Tug. MMSI: 366826930.

Date/timePositionNaut miles runAvg speedWind from/ knotsBaromVisibWave heightAir tempDewpointWater temp
2018-Jul-22 03:00N 29°47' W 095°05'0 0.3
2018-Jul-22 02:29N 29°47' W 095°05'0 0.0
2018-Jul-22 01:56N 29°47' W 095°05'0 0.0
2018-Jul-21 19:53N 29°47' W 095°05'0 0.3
2018-Jul-21 19:27N 29°47' W 095°05'2 3.0
2018-Jul-21 18:48N 29°45' W 095°04'2 6.4
2018-Jul-21 18:27N 29°44' W 095°02'3 5.9
2018-Jul-21 18:00N 29°42' W 095°00'3 6.6
2018-Jul-21 17:30N 29°39' W 094°58'4 7.1
2018-Jul-21 16:59N 29°36' W 094°57'4 7.0
2018-Jul-21 16:29N 29°33' W 094°54'4 6.9
2018-Jul-21 15:55N 29°30' W 094°52'3 6.8
2018-Jul-21 15:29N 29°27' W 094°51'3 6.7
2018-Jul-21 14:58N 29°24' W 094°49'3 5.8
2018-Jul-21 14:30N 29°21' W 094°49'3 6.2
2018-Jul-21 14:00N 29°19' W 094°52'3 6.5
2018-Jul-21 13:30N 29°17' W 094°55'3 6.6
2018-Jul-21 13:00N 29°17' W 094°58'3 6.1
2018-Jul-21 12:30N 29°15' W 095°01'3 5.7
2018-Jul-21 12:00N 29°12' W 095°03'3 6.0
2018-Jul-21 11:30N 29°11' W 095°06'3 5.9
2018-Jul-21 11:00N 29°09' W 095°09'3 5.6
2018-Jul-21 10:30N 29°07' W 095°11'3 6.2
2018-Jul-21 10:00N 29°05' W 095°13'3 6.6
2018-Jul-21 09:30N 29°02' W 095°14'3 6.7
2018-Jul-21 09:00N 28°59' W 095°16'3 6.3
2018-Jul-21 08:28N 28°56' W 095°19'4 5.5
2018-Jul-21 07:39N 28°54' W 095°23'0 3.1
2018-Jul-21 07:30N 28°54' W 095°24'7 5.6
2018-Jul-21 06:20N 28°51' W 095°30'2 6.3
2018-Jul-21 05:58N 28°49' W 095°32'3 6.1
2018-Jul-21 05:29N 28°47' W 095°35'3 6.0
2018-Jul-21 04:55N 28°46' W 095°38'3 6.1
2018-Jul-21 04:23N 28°45' W 095°42'3 5.5
2018-Jul-21 03:50N 28°45' W 095°45'2 5.8
2018-Jul-21 03:30N 28°45' W 095°47'3 5.6
2018-Jul-21 02:59N 28°44' W 095°51'2 3.9
2018-Jul-21 02:30N 28°43' W 095°53'3 5.5
2018-Jul-21 02:00N 28°42' W 095°55'3 5.3
2018-Jul-21 01:30N 28°41' W 095°58'4 0.3
2018-Jul-20 08:03N 28°45' W 095°60'1 2.6
2018-Jul-20 07:43N 28°44' W 095°60'1 3.5
2018-Jul-20 07:27N 28°44' W 095°58'2 3.4
2018-Jul-20 07:00N 28°43' W 095°59'2 3.4
2018-Jul-20 06:27N 28°41' W 095°58'2 4.5
2018-Jul-20 06:00N 28°42' W 095°56'2 4.8
2018-Jul-20 05:30N 28°43' W 095°54'29 5.5
2018-Jul-20 00:17N 28°54' W 095°24'8 6.1
2018-Jul-19 22:54N 28°59' W 095°16'4 6.7
2018-Jul-19 22:22N 29°02' W 095°14'2 6.5
2018-Jul-19 22:00N 29°04' W 095°13'3 5.9
2018-Jul-19 21:30N 29°07' W 095°11'3 6.2
2018-Jul-19 21:00N 29°09' W 095°09'3 6.6
2018-Jul-19 20:31N 29°11' W 095°06'2 4.8
2018-Jul-19 20:00N 29°12' W 095°03'0 0.0
2018-Jul-19 19:30N 29°12' W 095°03'1 2.2
2018-Jul-19 19:00N 29°13' W 095°02'3 6.3
2018-Jul-19 18:29N 29°15' W 094°60'3 6.0
2018-Jul-19 18:00N 29°17' W 094°57'3 6.1
2018-Jul-19 17:30N 29°17' W 094°54'2 4.4
2018-Jul-19 17:00N 29°19' W 094°52'3 5.1
2018-Jul-19 16:30N 29°20' W 094°50'3 5.2
2018-Jul-19 15:59N 29°23' W 094°49'4 6.2
2018-Jul-19 15:24N 29°26' W 094°50'4 6.3
2018-Jul-19 14:49N 29°30' W 094°52'2 6.1
2018-Jul-19 14:25N 29°31' W 094°53'6 6.7
2018-Jul-19 13:30N 29°37' W 094°57'3 6.9
2018-Jul-19 13:00N 29°40' W 094°59'3 6.7
2018-Jul-19 12:29N 29°42' W 095°01'2 4.5
2018-Jul-19 12:00N 29°44' W 095°03'3 5.9
2018-Jul-19 11:28N 29°47' W 095°04'0 1.0
2018-Jul-19 10:58N 29°47' W 095°05'0 0.0
2018-Jul-19 10:29N 29°47' W 095°05'0 0.0
2018-Jul-19 10:00N 29°47' W 095°05'0 0.2
2018-Jul-19 09:30N 29°47' W 095°05'0 0.3
2018-Jul-19 09:00N 29°47' W 095°05'0 0.0
2018-Jul-19 08:26N 29°47' W 095°05'1 2.6
2018-Jul-19 08:00N 29°46' W 095°05'3 6.0
2018-Jul-19 07:30N 29°44' W 095°02'3 6.1
2018-Jul-19 07:00N 29°42' W 094°60'3 7.0
2018-Jul-19 06:30N 29°39' W 094°58'4 7.1
2018-Jul-19 06:00N 29°35' W 094°56'4 7.2
2018-Jul-19 05:30N 29°33' W 094°54'4 7.2
2018-Jul-19 05:00N 29°30' W 094°52'4 7.5
2018-Jul-19 04:30N 29°26' W 094°50'4 7.8
2018-Jul-19 04:00N 29°22' W 094°48'3 5.3
2018-Jul-19 03:30N 29°20' W 094°50'4 6.9
2018-Jul-19 03:00N 29°18' W 094°53'3 6.2
2018-Jul-19 02:30N 29°17' W 094°57'3 6.7
2018-Jul-19 02:00N 29°16' W 094°60'3 6.7
2018-Jul-19 01:30N 29°13' W 095°02'3 6.6
2018-Jul-19 01:00N 29°11' W 095°05'3 6.2
2018-Jul-19 00:30N 29°09' W 095°08'3 6.3
2018-Jul-19 00:00N 29°07' W 095°11'3 6.6
2018-Jul-18 23:30N 29°04' W 095°13'3 6.4
2018-Jul-18 23:00N 29°01' W 095°14'3 6.5
2018-Jul-18 22:30N 28°59' W 095°16'36 0.9
2018-Jul-17 08:14N 28°43' W 095°53'2 5.8
2018-Jul-17 07:56N 28°44' W 095°51'6 5.0
2018-Jul-17 06:42N 28°44' W 095°44'2 4.2
2018-Jul-17 06:15N 28°45' W 095°42'2 4.0
2018-Jul-17 05:42N 28°46' W 095°39'1 5.4
2018-Jul-17 05:28N 28°46' W 095°38'3 5.8
2018-Jul-17 04:56N 28°47' W 095°35'3 5.1
2018-Jul-17 04:25N 28°49' W 095°32'2 5.6
2018-Jul-17 04:00N 28°51' W 095°31'3 5.7
2018-Jul-17 03:30N 28°52' W 095°28'4 5.6
2018-Jul-17 02:47N 28°54' W 095°24'4 5.1
2018-Jul-17 02:05N 28°55' W 095°20'0 5.6
2018-Jul-17 02:00N 28°56' W 095°20'3 5.8
2018-Jul-17 01:30N 28°58' W 095°17'6 5.5
2018-Jul-17 00:29N 29°02' W 095°14'5 5.2
2018-Jul-16 23:30N 29°07' W 095°11'3 5.2
2018-Jul-16 23:00N 29°09' W 095°09'3 5.8
2018-Jul-16 22:30N 29°10' W 095°07'3 5.6
2018-Jul-16 22:00N 29°12' W 095°04'3 5.1
2018-Jul-16 21:30N 29°14' W 095°02'3 5.8
2018-Jul-16 21:00N 29°16' W 094°59'3 5.4
2018-Jul-16 20:30N 29°17' W 094°57'3 5.4
2018-Jul-16 20:00N 29°17' W 094°54'2 4.2
2018-Jul-16 19:30N 29°19' W 094°52'3 5.8
2018-Jul-16 19:00N 29°21' W 094°50'2 4.6
2018-Jul-16 18:30N 29°23' W 094°49'9 5.9
2018-Jul-16 17:00N 29°31' W 094°53'3 5.9
2018-Jul-16 16:30N 29°33' W 094°55'3 6.1
2018-Jul-16 16:00N 29°36' W 094°57'3 5.4
2018-Jul-16 15:30N 29°37' W 094°59'2 3.5
2018-Jul-16 15:00N 29°37' W 095°01'0 0.0
2018-Jul-16 14:30N 29°37' W 095°01'0 0.0
2018-Jul-16 14:00N 29°37' W 095°01'0 0.0
2018-Jul-16 13:30N 29°37' W 095°01'0 0.0
2018-Jul-16 13:00N 29°37' W 095°01'0 0.0
2018-Jul-16 12:30N 29°37' W 095°01'0 0.0
2018-Jul-16 12:00N 29°37' W 095°01'0 0.0
2018-Jul-16 11:30N 29°37' W 095°01'0 0.0
2018-Jul-16 11:00N 29°37' W 095°01'0 0.0
2018-Jul-16 10:30N 29°37' W 095°01'0 0.0
2018-Jul-16 10:01N 29°37' W 095°01'0 0.0
2018-Jul-16 09:30N 29°37' W 095°01'0 0.0
2018-Jul-16 09:00N 29°37' W 095°01'1 1.6
2018-Jul-16 08:30N 29°37' W 095°01'3 6.5
2018-Jul-16 08:00N 29°36' W 094°57'4 7.4
2018-Jul-16 07:30N 29°33' W 094°55'4 6.8
2018-Jul-16 06:52N 29°29' W 094°52'3 6.6
2018-Jul-16 06:26N 29°27' W 094°50'3 6.1
2018-Jul-16 05:58N 29°24' W 094°49'3 5.3
2018-Jul-16 05:28N 29°22' W 094°48'2 5.3
2018-Jul-16 05:00N 29°20' W 094°50'3 6.2
2018-Jul-16 04:27N 29°18' W 094°53'3 7.0
2018-Jul-16 04:00N 29°17' W 094°57'3 6.5
2018-Jul-16 03:30N 29°16' W 094°60'3 5.2
2018-Jul-16 03:00N 29°14' W 095°02'3 6.0
2018-Jul-16 02:30N 29°12' W 095°04'3 6.5
2018-Jul-16 02:00N 29°10' W 095°08'3 7.0
2018-Jul-16 01:30N 29°08' W 095°11'3 6.9
2018-Jul-16 01:00N 29°05' W 095°13'4 7.0
2018-Jul-16 00:30N 29°01' W 095°14'4 6.8
2018-Jul-15 23:59N 28°59' W 095°17'1 0.0
2018-Jul-14 11:42N 28°59' W 095°16'2 4.7
2018-Jul-14 11:19N 29°00' W 095°15'2 4.7
2018-Jul-14 10:54N 29°02' W 095°14'2 4.8
2018-Jul-14 10:30N 29°04' W 095°13'2 5.0
2018-Jul-14 10:00N 29°06' W 095°12'3 5.0
2018-Jul-14 09:30N 29°08' W 095°10'3 5.3
2018-Jul-14 09:00N 29°10' W 095°08'3 5.0
2018-Jul-14 08:30N 29°11' W 095°05'2 4.8
2018-Jul-14 08:00N 29°12' W 095°03'3 5.5
2018-Jul-14 07:30N 29°14' W 095°01'3 5.4
2018-Jul-14 07:00N 29°17' W 094°59'2 4.7
2018-Jul-14 06:30N 29°17' W 094°56'2 4.4
2018-Jul-14 06:00N 29°17' W 094°54'2 4.3
2018-Jul-14 05:30N 29°19' W 094°52'1 2.9
2018-Jul-14 05:00N 29°20' W 094°51'3 6.0
2018-Jul-14 04:30N 29°22' W 094°48'10 7.9
2018-Jul-14 03:13N 29°31' W 094°53'2 7.2
2018-Jul-14 03:00N 29°32' W 094°54'3 5.9
2018-Jul-14 02:30N 29°35' W 094°56'3 5.6
2018-Jul-14 01:59N 29°37' W 094°58'3 6.1
2018-Jul-14 01:30N 29°37' W 095°01'0 0.4
2018-Jul-14 01:00N 29°37' W 095°01'0 0.0
2018-Jul-14 00:30N 29°37' W 095°01'0 0.0
2018-Jul-14 00:00N 29°37' W 095°01'0 0.0
2018-Jul-13 23:30N 29°37' W 095°01'0 0.0
2018-Jul-13 23:00N 29°37' W 095°01'0 0.0
2018-Jul-13 22:30N 29°37' W 095°01'0 0.0
2018-Jul-13 22:00N 29°37' W 095°01'0 0.0
2018-Jul-13 21:30N 29°37' W 095°01'0 0.0
2018-Jul-13 21:00N 29°37' W 095°01'0 0.0
2018-Jul-13 20:30N 29°37' W 095°01'0 0.0
2018-Jul-13 20:00N 29°37' W 095°01'0 0.0
2018-Jul-13 19:30N 29°37' W 095°01'0 0.0
2018-Jul-13 19:00N 29°37' W 095°01'0 0.0
2018-Jul-13 18:30N 29°37' W 095°01'1 1.7
2018-Jul-13 18:00N 29°37' W 095°01'3 5.3
2018-Jul-13 17:30N 29°37' W 094°58'3 5.0
2018-Jul-13 17:00N 29°40' W 094°58'3 6.1
2018-Jul-13 16:26N 29°42' W 095°01'0 0.0
2018-Jul-13 11:52N 29°42' W 095°01'2 6.9
2018-Jul-13 11:30N 29°41' W 094°59'3 6.8
2018-Jul-13 11:00N 29°38' W 094°58'3 5.4
2018-Jul-13 10:30N 29°37' W 095°01'1 1.7
2018-Jul-13 10:00N 29°37' W 095°01'0 0.0
2018-Jul-13 09:30N 29°37' W 095°01'0 0.0
2018-Jul-13 09:00N 29°37' W 095°01'0 0.0
2018-Jul-13 08:30N 29°37' W 095°01'0 0.0
2018-Jul-13 08:00N 29°37' W 095°01'0 0.0
2018-Jul-13 07:30N 29°37' W 095°01'0 0.0
2018-Jul-13 07:00N 29°37' W 095°01'0 0.0
2018-Jul-13 06:30N 29°37' W 095°01'0 0.0
2018-Jul-13 05:59N 29°37' W 095°01'0 0.0
2018-Jul-13 05:30N 29°37' W 095°01'0 0.0
2018-Jul-13 05:00N 29°37' W 095°01'0 0.0
2018-Jul-13 04:30N 29°37' W 095°01'0 0.0
2018-Jul-13 04:00N 29°37' W 095°01'0 0.0
2018-Jul-13 03:30N 29°37' W 095°01'0 0.0
2018-Jul-13 03:00N 29°37' W 095°01'0 0.0
2018-Jul-13 02:30N 29°37' W 095°01'0 0.0
2018-Jul-13 02:00N 29°37' W 095°01'2 4.6
2018-Jul-13 01:30N 29°37' W 094°59'2 3.8
2018-Jul-13 01:00N 29°39' W 094°58'3 6.1
2018-Jul-13 00:30N 29°42' W 094°59'  
Track history (hours):
 
Tides and Currents Weather Stations Pressure Air Temp Water Temp Dewpoint Dewpoint Depression Visibility Wind Speed Wind Dir Waves Ship Positions

Rusty Hill

Owner: Blessey Enterprises, Inc., HARAHAN, LA. More information available from US FCC via Universal Licensing System.

Last reported at 2018-Jul-22 03:00 UTC. Time now 2018-Jul-22 03:10 UTC.
Position N 29°47' W 095°05'.

Length 43 m; draft 2.6 m.

Type: Tug. MMSI: 366826930.

Date/timePositionNaut miles runAvg speedWind from/ knotsBaromVisibWave heightAir tempDewpointWater temp
2018-Jul-22 03:00N 29°47' W 095°05'0 0.3
2018-Jul-22 02:29N 29°47' W 095°05'0 0.0
2018-Jul-22 01:56N 29°47' W 095°05'0 0.0
2018-Jul-21 19:53N 29°47' W 095°05'0 0.3
2018-Jul-21 19:27N 29°47' W 095°05'2 3.0
2018-Jul-21 18:48N 29°45' W 095°04'2 6.4
2018-Jul-21 18:27N 29°44' W 095°02'3 5.9
2018-Jul-21 18:00N 29°42' W 095°00'3 6.6
2018-Jul-21 17:30N 29°39' W 094°58'4 7.1
2018-Jul-21 16:59N 29°36' W 094°57'4 7.0
2018-Jul-21 16:29N 29°33' W 094°54'4 6.9
2018-Jul-21 15:55N 29°30' W 094°52'3 6.8
2018-Jul-21 15:29N 29°27' W 094°51'3 6.7
2018-Jul-21 14:58N 29°24' W 094°49'3 5.8
2018-Jul-21 14:30N 29°21' W 094°49'3 6.2
2018-Jul-21 14:00N 29°19' W 094°52'3 6.5
2018-Jul-21 13:30N 29°17' W 094°55'3 6.6
2018-Jul-21 13:00N 29°17' W 094°58'3 6.1
2018-Jul-21 12:30N 29°15' W 095°01'3 5.7
2018-Jul-21 12:00N 29°12' W 095°03'3 6.0
2018-Jul-21 11:30N 29°11' W 095°06'3 5.9
2018-Jul-21 11:00N 29°09' W 095°09'3 5.6
2018-Jul-21 10:30N 29°07' W 095°11'3 6.2
2018-Jul-21 10:00N 29°05' W 095°13'3 6.6
2018-Jul-21 09:30N 29°02' W 095°14'3 6.7
2018-Jul-21 09:00N 28°59' W 095°16'3 6.3
2018-Jul-21 08:28N 28°56' W 095°19'4 5.5
2018-Jul-21 07:39N 28°54' W 095°23'0 3.1
2018-Jul-21 07:30N 28°54' W 095°24'7 5.6
2018-Jul-21 06:20N 28°51' W 095°30'2 6.3
2018-Jul-21 05:58N 28°49' W 095°32'3 6.1
2018-Jul-21 05:29N 28°47' W 095°35'3 6.0
2018-Jul-21 04:55N 28°46' W 095°38'3 6.1
2018-Jul-21 04:23N 28°45' W 095°42'3 5.5
2018-Jul-21 03:50N 28°45' W 095°45'2 5.8
2018-Jul-21 03:30N 28°45' W 095°47'3 5.6
2018-Jul-21 02:59N 28°44' W 095°51'2 3.9
2018-Jul-21 02:30N 28°43' W 095°53'3 5.5
2018-Jul-21 02:00N 28°42' W 095°55'3 5.3
2018-Jul-21 01:30N 28°41' W 095°58'4 0.3
2018-Jul-20 08:03N 28°45' W 095°60'1 2.6
2018-Jul-20 07:43N 28°44' W 095°60'1 3.5
2018-Jul-20 07:27N 28°44' W 095°58'2 3.4
2018-Jul-20 07:00N 28°43' W 095°59'2 3.4
2018-Jul-20 06:27N 28°41' W 095°58'2 4.5
2018-Jul-20 06:00N 28°42' W 095°56'2 4.8
2018-Jul-20 05:30N 28°43' W 095°54'29 5.5
2018-Jul-20 00:17N 28°54' W 095°24'8 6.1
2018-Jul-19 22:54N 28°59' W 095°16'4 6.7
2018-Jul-19 22:22N 29°02' W 095°14'2 6.5
2018-Jul-19 22:00N 29°04' W 095°13'3 5.9
2018-Jul-19 21:30N 29°07' W 095°11'3 6.2
2018-Jul-19 21:00N 29°09' W 095°09'3 6.6
2018-Jul-19 20:31N 29°11' W 095°06'2 4.8
2018-Jul-19 20:00N 29°12' W 095°03'0 0.0
2018-Jul-19 19:30N 29°12' W 095°03'1 2.2
2018-Jul-19 19:00N 29°13' W 095°02'3 6.3
2018-Jul-19 18:29N 29°15' W 094°60'3 6.0
2018-Jul-19 18:00N 29°17' W 094°57'3 6.1
2018-Jul-19 17:30N 29°17' W 094°54'2 4.4
2018-Jul-19 17:00N 29°19' W 094°52'3 5.1
2018-Jul-19 16:30N 29°20' W 094°50'3 5.2
2018-Jul-19 15:59N 29°23' W 094°49'4 6.2
2018-Jul-19 15:24N 29°26' W 094°50'4 6.3
2018-Jul-19 14:49N 29°30' W 094°52'2 6.1
2018-Jul-19 14:25N 29°31' W 094°53'6 6.7
2018-Jul-19 13:30N 29°37' W 094°57'3 6.9
2018-Jul-19 13:00N 29°40' W 094°59'3 6.7
2018-Jul-19 12:29N 29°42' W 095°01'2 4.5
2018-Jul-19 12:00N 29°44' W 095°03'3 5.9
2018-Jul-19 11:28N 29°47' W 095°04'0 1.0
2018-Jul-19 10:58N 29°47' W 095°05'0 0.0
2018-Jul-19 10:29N 29°47' W 095°05'0 0.0
2018-Jul-19 10:00N 29°47' W 095°05'0 0.2
2018-Jul-19 09:30N 29°47' W 095°05'0 0.3
2018-Jul-19 09:00N 29°47' W 095°05'0 0.0
2018-Jul-19 08:26N 29°47' W 095°05'1 2.6
2018-Jul-19 08:00N 29°46' W 095°05'3 6.0
2018-Jul-19 07:30N 29°44' W 095°02'3 6.1
2018-Jul-19 07:00N 29°42' W 094°60'3 7.0
2018-Jul-19 06:30N 29°39' W 094°58'4 7.1
2018-Jul-19 06:00N 29°35' W 094°56'4 7.2
2018-Jul-19 05:30N 29°33' W 094°54'4 7.2
2018-Jul-19 05:00N 29°30' W 094°52'4 7.5
2018-Jul-19 04:30N 29°26' W 094°50'4 7.8
2018-Jul-19 04:00N 29°22' W 094°48'3 5.3
2018-Jul-19 03:30N 29°20' W 094°50'4 6.9
2018-Jul-19 03:00N 29°18' W 094°53'3 6.2
2018-Jul-19 02:30N 29°17' W 094°57'3 6.7
2018-Jul-19 02:00N 29°16' W 094°60'3 6.7
2018-Jul-19 01:30N 29°13' W 095°02'3 6.6
2018-Jul-19 01:00N 29°11' W 095°05'3 6.2
2018-Jul-19 00:30N 29°09' W 095°08'3 6.3
2018-Jul-19 00:00N 29°07' W 095°11'3 6.6
2018-Jul-18 23:30N 29°04' W 095°13'3 6.4
2018-Jul-18 23:00N 29°01' W 095°14'3 6.5
2018-Jul-18 22:30N 28°59' W 095°16'36 0.9
2018-Jul-17 08:14N 28°43' W 095°53'2 5.8
2018-Jul-17 07:56N 28°44' W 095°51'6 5.0
2018-Jul-17 06:42N 28°44' W 095°44'2 4.2
2018-Jul-17 06:15N 28°45' W 095°42'2 4.0
2018-Jul-17 05:42N 28°46' W 095°39'1 5.4
2018-Jul-17 05:28N 28°46' W 095°38'3 5.8
2018-Jul-17 04:56N 28°47' W 095°35'3 5.1
2018-Jul-17 04:25N 28°49' W 095°32'2 5.6
2018-Jul-17 04:00N 28°51' W 095°31'3 5.7
2018-Jul-17 03:30N 28°52' W 095°28'4 5.6
2018-Jul-17 02:47N 28°54' W 095°24'4 5.1
2018-Jul-17 02:05N 28°55' W 095°20'0 5.6
2018-Jul-17 02:00N 28°56' W 095°20'3 5.8
2018-Jul-17 01:30N 28°58' W 095°17'6 5.5
2018-Jul-17 00:29N 29°02' W 095°14'5 5.2
2018-Jul-16 23:30N 29°07' W 095°11'3 5.2
2018-Jul-16 23:00N 29°09' W 095°09'3 5.8
2018-Jul-16 22:30N 29°10' W 095°07'3 5.6
2018-Jul-16 22:00N 29°12' W 095°04'3 5.1
2018-Jul-16 21:30N 29°14' W 095°02'3 5.8
2018-Jul-16 21:00N 29°16' W 094°59'3 5.4
2018-Jul-16 20:30N 29°17' W 094°57'3 5.4
2018-Jul-16 20:00N 29°17' W 094°54'2 4.2
2018-Jul-16 19:30N 29°19' W 094°52'3 5.8
2018-Jul-16 19:00N 29°21' W 094°50'2 4.6
2018-Jul-16 18:30N 29°23' W 094°49'9 5.9
2018-Jul-16 17:00N 29°31' W 094°53'3 5.9
2018-Jul-16 16:30N 29°33' W 094°55'3 6.1
2018-Jul-16 16:00N 29°36' W 094°57'3 5.4
2018-Jul-16 15:30N 29°37' W 094°59'2 3.5
2018-Jul-16 15:00N 29°37' W 095°01'0 0.0
2018-Jul-16 14:30N 29°37' W 095°01'0 0.0
2018-Jul-16 14:00N 29°37' W 095°01'0 0.0
2018-Jul-16 13:30N 29°37' W 095°01'0 0.0
2018-Jul-16 13:00N 29°37' W 095°01'0 0.0
2018-Jul-16 12:30N 29°37' W 095°01'0 0.0
2018-Jul-16 12:00N 29°37' W 095°01'0 0.0
2018-Jul-16 11:30N 29°37' W 095°01'0 0.0
2018-Jul-16 11:00N 29°37' W 095°01'0 0.0
2018-Jul-16 10:30N 29°37' W 095°01'0 0.0
2018-Jul-16 10:01N 29°37' W 095°01'0 0.0
2018-Jul-16 09:30N 29°37' W 095°01'0 0.0
2018-Jul-16 09:00N 29°37' W 095°01'1 1.6
2018-Jul-16 08:30N 29°37' W 095°01'3 6.5
2018-Jul-16 08:00N 29°36' W 094°57'4 7.4
2018-Jul-16 07:30N 29°33' W 094°55'4 6.8
2018-Jul-16 06:52N 29°29' W 094°52'3 6.6
2018-Jul-16 06:26N 29°27' W 094°50'3 6.1
2018-Jul-16 05:58N 29°24' W 094°49'3 5.3
2018-Jul-16 05:28N 29°22' W 094°48'2 5.3
2018-Jul-16 05:00N 29°20' W 094°50'3 6.2
2018-Jul-16 04:27N 29°18' W 094°53'3 7.0
2018-Jul-16 04:00N 29°17' W 094°57'3 6.5
2018-Jul-16 03:30N 29°16' W 094°60'3 5.2
2018-Jul-16 03:00N 29°14' W 095°02'3 6.0
2018-Jul-16 02:30N 29°12' W 095°04'3 6.5
2018-Jul-16 02:00N 29°10' W 095°08'3 7.0
2018-Jul-16 01:30N 29°08' W 095°11'3 6.9
2018-Jul-16 01:00N 29°05' W 095°13'4 7.0
2018-Jul-16 00:30N 29°01' W 095°14'4 6.8
2018-Jul-15 23:59N 28°59' W 095°17'1 0.0
2018-Jul-14 11:42N 28°59' W 095°16'2 4.7
2018-Jul-14 11:19N 29°00' W 095°15'2 4.7
2018-Jul-14 10:54N 29°02' W 095°14'2 4.8
2018-Jul-14 10:30N 29°04' W 095°13'2 5.0
2018-Jul-14 10:00N 29°06' W 095°12'3 5.0
2018-Jul-14 09:30N 29°08' W 095°10'3 5.3
2018-Jul-14 09:00N 29°10' W 095°08'3 5.0
2018-Jul-14 08:30N 29°11' W 095°05'2 4.8
2018-Jul-14 08:00N 29°12' W 095°03'3 5.5
2018-Jul-14 07:30N 29°14' W 095°01'3 5.4
2018-Jul-14 07:00N 29°17' W 094°59'2 4.7
2018-Jul-14 06:30N 29°17' W 094°56'2 4.4
2018-Jul-14 06:00N 29°17' W 094°54'2 4.3
2018-Jul-14 05:30N 29°19' W 094°52'1 2.9
2018-Jul-14 05:00N 29°20' W 094°51'3 6.0
2018-Jul-14 04:30N 29°22' W 094°48'10 7.9
2018-Jul-14 03:13N 29°31' W 094°53'2 7.2
2018-Jul-14 03:00N 29°32' W 094°54'3 5.9
2018-Jul-14 02:30N 29°35' W 094°56'3 5.6
2018-Jul-14 01:59N 29°37' W 094°58'3 6.1
2018-Jul-14 01:30N 29°37' W 095°01'0 0.4
2018-Jul-14 01:00N 29°37' W 095°01'0 0.0
2018-Jul-14 00:30N 29°37' W 095°01'0 0.0
2018-Jul-14 00:00N 29°37' W 095°01'0 0.0
2018-Jul-13 23:30N 29°37' W 095°01'0 0.0
2018-Jul-13 23:00N 29°37' W 095°01'0 0.0
2018-Jul-13 22:30N 29°37' W 095°01'0 0.0
2018-Jul-13 22:00N 29°37' W 095°01'0 0.0
2018-Jul-13 21:30N 29°37' W 095°01'0 0.0
2018-Jul-13 21:00N 29°37' W 095°01'0 0.0
2018-Jul-13 20:30N 29°37' W 095°01'0 0.0
2018-Jul-13 20:00N 29°37' W 095°01'0 0.0
2018-Jul-13 19:30N 29°37' W 095°01'0 0.0
2018-Jul-13 19:00N 29°37' W 095°01'0 0.0
2018-Jul-13 18:30N 29°37' W 095°01'1 1.7
2018-Jul-13 18:00N 29°37' W 095°01'3 5.3
2018-Jul-13 17:30N 29°37' W 094°58'3 5.0
2018-Jul-13 17:00N 29°40' W 094°58'3 6.1
2018-Jul-13 16:26N 29°42' W 095°01'0 0.0
2018-Jul-13 11:52N 29°42' W 095°01'2 6.9
2018-Jul-13 11:30N 29°41' W 094°59'3 6.8
2018-Jul-13 11:00N 29°38' W 094°58'3 5.4
2018-Jul-13 10:30N 29°37' W 095°01'1 1.7
2018-Jul-13 10:00N 29°37' W 095°01'0 0.0
2018-Jul-13 09:30N 29°37' W 095°01'0 0.0
2018-Jul-13 09:00N 29°37' W 095°01'0 0.0
2018-Jul-13 08:30N 29°37' W 095°01'0 0.0
2018-Jul-13 08:00N 29°37' W 095°01'0 0.0
2018-Jul-13 07:30N 29°37' W 095°01'0 0.0
2018-Jul-13 07:00N 29°37' W 095°01'0 0.0
2018-Jul-13 06:30N 29°37' W 095°01'0 0.0
2018-Jul-13 05:59N 29°37' W 095°01'0 0.0
2018-Jul-13 05:30N 29°37' W 095°01'0 0.0
2018-Jul-13 05:00N 29°37' W 095°01'0 0.0
2018-Jul-13 04:30N 29°37' W 095°01'0 0.0
2018-Jul-13 04:00N 29°37' W 095°01'0 0.0
2018-Jul-13 03:30N 29°37' W 095°01'0 0.0
2018-Jul-13 03:00N 29°37' W 095°01'0 0.0
2018-Jul-13 02:30N 29°37' W 095°01'0 0.0
2018-Jul-13 02:00N 29°37' W 095°01'2 4.6
2018-Jul-13 01:30N 29°37' W 094°59'2 3.8
2018-Jul-13 01:00N 29°39' W 094°58'3 6.1
2018-Jul-13 00:30N 29°42' W 094°59'  

Dump ship's entire track history